sensor_id;sensor_type;location;lat;lon;timestamp;pressure;altitude;pressure_sealevel;temperature;humidity
58967;BME280;44744;51.894;5.080;2023-05-08T00:00:57;102159.37;;;15.79;79.77
58967;BME280;44744;51.894;5.080;2023-05-08T00:01:57;102162.94;;;15.79;79.78
58967;BME280;44744;51.894;5.080;2023-05-08T00:02:58;102164.25;;;15.78;79.56
58967;BME280;44744;51.894;5.080;2023-05-08T00:03:58;102161.44;;;15.77;79.71
58967;BME280;44744;51.894;5.080;2023-05-08T00:04:58;102162.88;;;15.77;79.74
58967;BME280;44744;51.894;5.080;2023-05-08T00:05:59;102164.36;;;15.75;79.76
58967;BME280;44744;51.894;5.080;2023-05-08T00:07:02;102161.42;;;15.74;79.79
58967;BME280;44744;51.894;5.080;2023-05-08T00:08:03;102164.69;;;15.73;79.83
58967;BME280;44744;51.894;5.080;2023-05-08T00:09:03;102157.96;;;15.72;79.91
58967;BME280;44744;51.894;5.080;2023-05-08T00:10:04;102161.48;;;15.73;80.02
58967;BME280;44744;51.894;5.080;2023-05-08T00:11:05;102156.99;;;15.74;80.28
58967;BME280;44744;51.894;5.080;2023-05-08T00:12:05;102159.65;;;15.74;80.15
58967;BME280;44744;51.894;5.080;2023-05-08T00:13:05;102159.06;;;15.75;80.29
58967;BME280;44744;51.894;5.080;2023-05-08T00:14:06;102153.14;;;15.76;80.10
58967;BME280;44744;51.894;5.080;2023-05-08T00:15:07;102154.67;;;15.77;80.19
58967;BME280;44744;51.894;5.080;2023-05-08T00:16:07;102153.61;;;15.77;80.06
58967;BME280;44744;51.894;5.080;2023-05-08T00:17:08;102153.75;;;15.77;80.17
58967;BME280;44744;51.894;5.080;2023-05-08T00:18:08;102152.70;;;15.77;80.18
58967;BME280;44744;51.894;5.080;2023-05-08T00:19:08;102150.95;;;15.76;80.13
58967;BME280;44744;51.894;5.080;2023-05-08T00:20:09;102153.13;;;15.76;80.03
58967;BME280;44744;51.894;5.080;2023-05-08T00:21:09;102150.16;;;15.74;80.00
58967;BME280;44744;51.894;5.080;2023-05-08T00:22:11;102154.83;;;15.74;79.98
58967;BME280;44744;51.894;5.080;2023-05-08T00:23:11;102154.86;;;15.74;79.95
58967;BME280;44744;51.894;5.080;2023-05-08T00:24:13;102152.75;;;15.73;79.83
58967;BME280;44744;51.894;5.080;2023-05-08T00:25:13;102153.33;;;15.72;80.04
58967;BME280;44744;51.894;5.080;2023-05-08T00:26:13;102150.64;;;15.72;80.07
58967;BME280;44744;51.894;5.080;2023-05-08T00:27:14;102151.91;;;15.72;79.94
58967;BME280;44744;51.894;5.080;2023-05-08T00:28:14;102148.86;;;15.72;79.90
58967;BME280;44744;51.894;5.080;2023-05-08T00:29:14;102147.67;;;15.71;79.85
58967;BME280;44744;51.894;5.080;2023-05-08T00:30:15;102149.33;;;15.70;79.85
58967;BME280;44744;51.894;5.080;2023-05-08T00:31:15;102149.02;;;15.69;79.80
58967;BME280;44744;51.894;5.080;2023-05-08T00:32:15;102146.61;;;15.68;79.74
58967;BME280;44744;51.894;5.080;2023-05-08T00:33:16;102146.12;;;15.67;79.86
58967;BME280;44744;51.894;5.080;2023-05-08T00:34:16;102147.44;;;15.66;79.82
58967;BME280;44744;51.894;5.080;2023-05-08T00:35:16;102149.83;;;15.64;79.94
58967;BME280;44744;51.894;5.080;2023-05-08T00:36:17;102149.73;;;15.63;79.88
58967;BME280;44744;51.894;5.080;2023-05-08T00:37:17;102154.47;;;15.61;79.83
58967;BME280;44744;51.894;5.080;2023-05-08T00:38:17;102156.52;;;15.60;79.90
58967;BME280;44744;51.894;5.080;2023-05-08T00:39:18;102157.48;;;15.58;79.99
58967;BME280;44744;51.894;5.080;2023-05-08T00:40:18;102155.77;;;15.57;79.94
58967;BME280;44744;51.894;5.080;2023-05-08T00:41:19;102157.72;;;15.54;79.86
58967;BME280;44744;51.894;5.080;2023-05-08T00:42:19;102158.59;;;15.51;79.91
58967;BME280;44744;51.894;5.080;2023-05-08T00:43:19;102158.56;;;15.48;79.85
58967;BME280;44744;51.894;5.080;2023-05-08T00:44:19;102159.39;;;15.46;80.13
58967;BME280;44744;51.894;5.080;2023-05-08T00:45:20;102159.83;;;15.45;79.99
58967;BME280;44744;51.894;5.080;2023-05-08T00:46:20;102163.68;;;15.43;80.10
58967;BME280;44744;51.894;5.080;2023-05-08T00:47:21;102160.99;;;15.40;79.87
58967;BME280;44744;51.894;5.080;2023-05-08T00:48:27;102167.00;;;15.37;79.98
58967;BME280;44744;51.894;5.080;2023-05-08T00:49:27;102167.88;;;15.34;79.81
58967;BME280;44744;51.894;5.080;2023-05-08T00:50:28;102167.11;;;15.32;79.92
58967;BME280;44744;51.894;5.080;2023-05-08T00:51:29;102163.52;;;15.29;79.80
58967;BME280;44744;51.894;5.080;2023-05-08T00:52:30;102163.25;;;15.28;80.04
58967;BME280;44744;51.894;5.080;2023-05-08T00:53:35;102159.12;;;15.25;79.93
58967;BME280;44744;51.894;5.080;2023-05-08T00:54:37;102156.91;;;15.23;79.88
58967;BME280;44744;51.894;5.080;2023-05-08T00:55:37;102156.52;;;15.20;80.02
58967;BME280;44744;51.894;5.080;2023-05-08T00:56:38;102157.54;;;15.17;79.96
58967;BME280;44744;51.894;5.080;2023-05-08T00:57:39;102157.27;;;15.16;79.99
58967;BME280;44744;51.894;5.080;2023-05-08T00:58:41;102154.33;;;15.14;79.92
58967;BME280;44744;51.894;5.080;2023-05-08T00:59:42;102153.77;;;15.12;79.74
58967;BME280;44744;51.894;5.080;2023-05-08T01:00:45;102155.33;;;15.09;79.93
58967;BME280;44744;51.894;5.080;2023-05-08T01:01:45;102150.48;;;15.07;79.74
58967;BME280;44744;51.894;5.080;2023-05-08T01:02:46;102150.23;;;15.01;79.73
58967;BME280;44744;51.894;5.080;2023-05-08T01:03:47;102149.27;;;14.99;80.02
58967;BME280;44744;51.894;5.080;2023-05-08T01:04:47;102151.47;;;14.98;80.03
58967;BME280;44744;51.894;5.080;2023-05-08T01:05:48;102151.02;;;14.96;79.88
58967;BME280;44744;51.894;5.080;2023-05-08T01:06:48;102152.71;;;14.94;80.03
58967;BME280;44744;51.894;5.080;2023-05-08T01:07:51;102154.76;;;14.93;80.10
58967;BME280;44744;51.894;5.080;2023-05-08T01:08:51;102153.48;;;14.93;80.38
58967;BME280;44744;51.894;5.080;2023-05-08T01:09:52;102153.31;;;14.93;80.30
58967;BME280;44744;51.894;5.080;2023-05-08T01:11:20;102151.36;;;14.93;80.31
58967;BME280;44744;51.894;5.080;2023-05-08T01:14:22;102150.98;;;14.90;80.60
58967;BME280;44744;51.894;5.080;2023-05-08T01:15:35;102154.14;;;14.91;80.71
58967;BME280;44744;51.894;5.080;2023-05-08T01:16:43;102154.33;;;14.91;80.70
58967;BME280;44744;51.894;5.080;2023-05-08T01:19:17;102153.44;;;14.91;80.88
58967;BME280;44744;51.894;5.080;2023-05-08T01:20:50;102155.00;;;14.92;80.88
58967;BME280;44744;51.894;5.080;2023-05-08T01:22:01;102156.76;;;14.92;80.95
58967;BME280;44744;51.894;5.080;2023-05-08T01:23:43;102156.54;;;14.93;80.92
58967;BME280;44744;51.894;5.080;2023-05-08T01:29:22;102156.85;;;14.87;80.94
58967;BME280;44744;51.894;5.080;2023-05-08T01:33:26;102159.86;;;14.80;81.01
58967;BME280;44744;51.894;5.080;2023-05-08T01:34:31;102161.39;;;14.79;80.98
58967;BME280;44744;51.894;5.080;2023-05-08T01:35:44;102164.61;;;14.78;81.16
58967;BME280;44744;51.894;5.080;2023-05-08T01:36:57;102161.95;;;14.78;81.47
58967;BME280;44744;51.894;5.080;2023-05-08T01:38:09;102163.59;;;14.77;81.38
58967;BME280;44744;51.894;5.080;2023-05-08T01:40:31;102163.95;;;14.73;81.27
58967;BME280;44744;51.894;5.080;2023-05-08T01:41:33;102165.67;;;14.71;81.17
58967;BME280;44744;51.894;5.080;2023-05-08T01:43:02;102167.06;;;14.68;81.22
58967;BME280;44744;51.894;5.080;2023-05-08T01:44:12;102167.61;;;14.64;80.93
58967;BME280;44744;51.894;5.080;2023-05-08T01:45:22;102169.14;;;14.62;80.96
58967;BME280;44744;51.894;5.080;2023-05-08T01:46:26;102171.52;;;14.61;81.10
58967;BME280;44744;51.894;5.080;2023-05-08T01:47:32;102172.12;;;14.59;81.00
58967;BME280;44744;51.894;5.080;2023-05-08T01:48:38;102172.42;;;14.57;81.01
58967;BME280;44744;51.894;5.080;2023-05-08T01:49:49;102172.23;;;14.54;80.98
58967;BME280;44744;51.894;5.080;2023-05-08T01:51:06;102172.20;;;14.50;80.95
58967;BME280;44744;51.894;5.080;2023-05-08T01:52:15;102172.70;;;14.48;80.91
58967;BME280;44744;51.894;5.080;2023-05-08T01:53:24;102172.10;;;14.45;80.90
58967;BME280;44744;51.894;5.080;2023-05-08T01:54:29;102171.45;;;14.44;80.93
58967;BME280;44744;51.894;5.080;2023-05-08T01:55:36;102172.21;;;14.43;81.01
58967;BME280;44744;51.894;5.080;2023-05-08T01:56:39;102170.47;;;14.42;80.96
58967;BME280;44744;51.894;5.080;2023-05-08T01:57:46;102172.45;;;14.42;80.97
58967;BME280;44744;51.894;5.080;2023-05-08T01:58:52;102170.16;;;14.41;81.03
58967;BME280;44744;51.894;5.080;2023-05-08T01:59:55;102173.27;;;14.40;81.10
58967;BME280;44744;51.894;5.080;2023-05-08T02:00:57;102173.20;;;14.38;80.89
58967;BME280;44744;51.894;5.080;2023-05-08T02:01:57;102175.24;;;14.36;80.81
58967;BME280;44744;51.894;5.080;2023-05-08T02:03:00;102178.09;;;14.32;80.77
58967;BME280;44744;51.894;5.080;2023-05-08T02:04:02;102176.77;;;14.30;80.75
58967;BME280;44744;51.894;5.080;2023-05-08T02:05:05;102179.71;;;14.28;80.75
58967;BME280;44744;51.894;5.080;2023-05-08T02:06:08;102181.58;;;14.26;80.71
58967;BME280;44744;51.894;5.080;2023-05-08T02:07:10;102181.70;;;14.24;80.68
58967;BME280;44744;51.894;5.080;2023-05-08T02:08:11;102180.20;;;14.22;80.49
58967;BME280;44744;51.894;5.080;2023-05-08T02:09:12;102179.12;;;14.19;80.47
58967;BME280;44744;51.894;5.080;2023-05-08T02:10:16;102182.61;;;14.16;80.53
58967;BME280;44744;51.894;5.080;2023-05-08T02:11:21;102181.77;;;14.15;80.61
58967;BME280;44744;51.894;5.080;2023-05-08T02:12:24;102176.98;;;14.15;80.82
58967;BME280;44744;51.894;5.080;2023-05-08T02:13:26;102180.95;;;14.14;80.58
58967;BME280;44744;51.894;5.080;2023-05-08T02:14:29;102179.20;;;14.13;80.73
58967;BME280;44744;51.894;5.080;2023-05-08T02:15:31;102178.56;;;14.12;80.79
58967;BME280;44744;51.894;5.080;2023-05-08T02:16:33;102181.41;;;14.12;80.59
58967;BME280;44744;51.894;5.080;2023-05-08T02:17:36;102183.07;;;14.10;80.71
58967;BME280;44744;51.894;5.080;2023-05-08T02:18:39;102185.07;;;14.10;80.83
58967;BME280;44744;51.894;5.080;2023-05-08T02:19:43;102189.02;;;14.09;80.74
58967;BME280;44744;51.894;5.080;2023-05-08T02:20:48;102185.14;;;14.08;80.68
58967;BME280;44744;51.894;5.080;2023-05-08T02:21:49;102183.52;;;14.09;80.94
58967;BME280;44744;51.894;5.080;2023-05-08T02:22:51;102181.96;;;14.08;80.65
58967;BME280;44744;51.894;5.080;2023-05-08T02:23:53;102184.13;;;14.07;80.70
58967;BME280;44744;51.894;5.080;2023-05-08T02:24:56;102181.36;;;14.05;80.86
58967;BME280;44744;51.894;5.080;2023-05-08T02:25:57;102184.92;;;14.05;80.76
58967;BME280;44744;51.894;5.080;2023-05-08T02:26:59;102189.91;;;14.05;80.98
58967;BME280;44744;51.894;5.080;2023-05-08T02:28:00;102189.00;;;14.05;80.89
58967;BME280;44744;51.894;5.080;2023-05-08T02:29:02;102188.69;;;14.05;80.88
58967;BME280;44744;51.894;5.080;2023-05-08T02:30:03;102188.77;;;14.03;80.88
58967;BME280;44744;51.894;5.080;2023-05-08T02:31:04;102185.08;;;14.02;80.83
58967;BME280;44744;51.894;5.080;2023-05-08T02:32:07;102183.18;;;14.00;80.78
58967;BME280;44744;51.894;5.080;2023-05-08T02:33:09;102183.97;;;13.99;80.74
58967;BME280;44744;51.894;5.080;2023-05-08T02:34:11;102185.83;;;13.97;80.70
58967;BME280;44744;51.894;5.080;2023-05-08T02:35:14;102183.23;;;13.96;80.77
58967;BME280;44744;51.894;5.080;2023-05-08T02:36:16;102185.02;;;13.96;80.75
58967;BME280;44744;51.894;5.080;2023-05-08T02:37:19;102185.63;;;13.94;80.66
58967;BME280;44744;51.894;5.080;2023-05-08T02:38:22;102183.73;;;13.93;80.69
58967;BME280;44744;51.894;5.080;2023-05-08T02:39:25;102181.67;;;13.91;80.66
58967;BME280;44744;51.894;5.080;2023-05-08T02:40:29;102182.27;;;13.90;80.63
58967;BME280;44744;51.894;5.080;2023-05-08T02:41:32;102180.98;;;13.87;80.44
58967;BME280;44744;51.894;5.080;2023-05-08T02:42:32;102182.86;;;13.85;80.72
58967;BME280;44744;51.894;5.080;2023-05-08T02:43:33;102189.15;;;13.84;80.99
58967;BME280;44744;51.894;5.080;2023-05-08T02:44:33;102190.42;;;13.83;80.96
58967;BME280;44744;51.894;5.080;2023-05-08T02:45:49;102189.52;;;13.83;80.78
58967;BME280;44744;51.894;5.080;2023-05-08T02:46:55;102195.44;;;13.82;80.89
58967;BME280;44744;51.894;5.080;2023-05-08T02:48:06;102190.33;;;13.81;80.84
58967;BME280;44744;51.894;5.080;2023-05-08T02:49:32;102191.83;;;13.79;80.61
58967;BME280;44744;51.894;5.080;2023-05-08T02:51:17;102189.99;;;13.77;80.73
58967;BME280;44744;51.894;5.080;2023-05-08T02:52:16;102189.24;;;13.74;80.81
58967;BME280;44744;51.894;5.080;2023-05-08T02:53:25;102184.85;;;13.73;80.98
58967;BME280;44744;51.894;5.080;2023-05-08T02:55:56;102187.11;;;13.70;80.83
58967;BME280;44744;51.894;5.080;2023-05-08T02:57:21;102187.34;;;13.70;80.95
58967;BME280;44744;51.894;5.080;2023-05-08T02:58:41;102184.77;;;13.67;80.92
58967;BME280;44744;51.894;5.080;2023-05-08T02:59:56;102186.14;;;13.64;80.82
58967;BME280;44744;51.894;5.080;2023-05-08T03:01:02;102180.97;;;13.61;80.97
58967;BME280;44744;51.894;5.080;2023-05-08T03:02:08;102183.06;;;13.58;80.73
58967;BME280;44744;51.894;5.080;2023-05-08T03:03:18;102183.05;;;13.54;80.72
58967;BME280;44744;51.894;5.080;2023-05-08T03:04:31;102176.78;;;13.52;80.59
58967;BME280;44744;51.894;5.080;2023-05-08T03:05:37;102178.67;;;13.49;80.78
58967;BME280;44744;51.894;5.080;2023-05-08T03:06:44;102179.61;;;13.48;80.80
58967;BME280;44744;51.894;5.080;2023-05-08T03:07:49;102178.63;;;13.46;80.63
58967;BME280;44744;51.894;5.080;2023-05-08T03:08:50;102181.09;;;13.43;80.69
58967;BME280;44744;51.894;5.080;2023-05-08T03:09:56;102184.36;;;13.41;80.74
58967;BME280;44744;51.894;5.080;2023-05-08T03:11:05;102180.32;;;13.36;80.77
58967;BME280;44744;51.894;5.080;2023-05-08T03:12:13;102184.67;;;13.29;80.70
58967;BME280;44744;51.894;5.080;2023-05-08T03:13:15;102180.52;;;13.23;80.75
58967;BME280;44744;51.894;5.080;2023-05-08T03:14:20;102184.20;;;13.20;80.81
58967;BME280;44744;51.894;5.080;2023-05-08T03:15:29;102179.57;;;13.17;81.03
58967;BME280;44744;51.894;5.080;2023-05-08T03:16:33;102179.86;;;13.14;81.06
58967;BME280;44744;51.894;5.080;2023-05-08T03:17:35;102179.06;;;13.12;81.36
58967;BME280;44744;51.894;5.080;2023-05-08T03:18:43;102179.86;;;13.10;81.36
58967;BME280;44744;51.894;5.080;2023-05-08T03:19:49;102178.15;;;13.08;81.54
58967;BME280;44744;51.894;5.080;2023-05-08T03:20:53;102179.23;;;13.08;81.62
58967;BME280;44744;51.894;5.080;2023-05-08T03:21:56;102177.84;;;13.07;81.83
58967;BME280;44744;51.894;5.080;2023-05-08T03:22:58;102178.56;;;13.07;81.98
58967;BME280;44744;51.894;5.080;2023-05-08T03:24:01;102175.77;;;13.07;81.94
58967;BME280;44744;51.894;5.080;2023-05-08T03:25:04;102176.86;;;13.06;81.95
58967;BME280;44744;51.894;5.080;2023-05-08T03:26:06;102175.61;;;13.06;82.25
58967;BME280;44744;51.894;5.080;2023-05-08T03:27:07;102175.58;;;13.06;82.36
58967;BME280;44744;51.894;5.080;2023-05-08T03:28:09;102171.67;;;13.06;82.43
58967;BME280;44744;51.894;5.080;2023-05-08T03:29:12;102170.96;;;13.07;82.50
58967;BME280;44744;51.894;5.080;2023-05-08T03:30:14;102168.27;;;13.07;82.49
58967;BME280;44744;51.894;5.080;2023-05-08T03:31:17;102170.19;;;13.08;82.80
58967;BME280;44744;51.894;5.080;2023-05-08T03:32:18;102170.83;;;13.10;82.77
58967;BME280;44744;51.894;5.080;2023-05-08T03:33:20;102170.98;;;13.10;83.11
58967;BME280;44744;51.894;5.080;2023-05-08T03:34:22;102171.80;;;13.12;82.83
58967;BME280;44744;51.894;5.080;2023-05-08T03:35:24;102168.58;;;13.12;83.30
58967;BME280;44744;51.894;5.080;2023-05-08T03:36:25;102168.93;;;13.12;83.12
58967;BME280;44744;51.894;5.080;2023-05-08T03:37:26;102164.08;;;13.13;83.24
58967;BME280;44744;51.894;5.080;2023-05-08T03:38:30;102164.42;;;13.13;83.28
58967;BME280;44744;51.894;5.080;2023-05-08T03:39:30;102162.46;;;13.14;83.35
58967;BME280;44744;51.894;5.080;2023-05-08T03:40:33;102161.23;;;13.14;83.41
58967;BME280;44744;51.894;5.080;2023-05-08T03:41:34;102164.36;;;13.15;83.49
58967;BME280;44744;51.894;5.080;2023-05-08T03:42:34;102163.61;;;13.16;83.46
58967;BME280;44744;51.894;5.080;2023-05-08T03:43:36;102164.48;;;13.17;83.75
58967;BME280;44744;51.894;5.080;2023-05-08T03:44:37;102164.45;;;13.17;83.63
58967;BME280;44744;51.894;5.080;2023-05-08T03:45:39;102165.66;;;13.18;83.62
58967;BME280;44744;51.894;5.080;2023-05-08T03:46:41;102163.17;;;13.18;83.54
58967;BME280;44744;51.894;5.080;2023-05-08T03:47:42;102162.42;;;13.19;83.69
58967;BME280;44744;51.894;5.080;2023-05-08T03:48:44;102163.64;;;13.20;83.81
58967;BME280;44744;51.894;5.080;2023-05-08T03:49:47;102159.89;;;13.20;83.70
58967;BME280;44744;51.894;5.080;2023-05-08T03:50:48;102157.02;;;13.20;83.88
58967;BME280;44744;51.894;5.080;2023-05-08T03:51:49;102153.60;;;13.21;83.72
58967;BME280;44744;51.894;5.080;2023-05-08T03:52:51;102157.69;;;13.21;83.80
58967;BME280;44744;51.894;5.080;2023-05-08T03:53:51;102154.65;;;13.22;83.78
58967;BME280;44744;51.894;5.080;2023-05-08T03:54:51;102157.48;;;13.22;83.81
58967;BME280;44744;51.894;5.080;2023-05-08T03:55:52;102153.75;;;13.22;83.83
58967;BME280;44744;51.894;5.080;2023-05-08T03:56:53;102156.72;;;13.23;83.95
58967;BME280;44744;51.894;5.080;2023-05-08T03:57:58;102156.88;;;13.24;83.97
58967;BME280;44744;51.894;5.080;2023-05-08T04:00:13;102156.46;;;13.25;84.04
58967;BME280;44744;51.894;5.080;2023-05-08T04:01:30;102159.48;;;13.25;84.15
58967;BME280;44744;51.894;5.080;2023-05-08T04:02:44;102161.60;;;13.25;84.09
58967;BME280;44744;51.894;5.080;2023-05-08T04:04:12;102161.91;;;13.26;84.19
58967;BME280;44744;51.894;5.080;2023-05-08T04:06:28;102161.34;;;13.27;84.17
58967;BME280;44744;51.894;5.080;2023-05-08T04:07:40;102160.78;;;13.28;84.16
58967;BME280;44744;51.894;5.080;2023-05-08T04:09:02;102162.89;;;13.28;84.21
58967;BME280;44744;51.894;5.080;2023-05-08T04:10:17;102159.38;;;13.27;84.22
58967;BME280;44744;51.894;5.080;2023-05-08T04:11:34;102165.74;;;13.28;84.35
58967;BME280;44744;51.894;5.080;2023-05-08T04:13:12;102168.05;;;13.28;84.18
58967;BME280;44744;51.894;5.080;2023-05-08T04:14:18;102164.95;;;13.26;84.23
58967;BME280;44744;51.894;5.080;2023-05-08T04:15:21;102164.08;;;13.25;84.39
58967;BME280;44744;51.894;5.080;2023-05-08T04:16:25;102163.73;;;13.25;84.35
58967;BME280;44744;51.894;5.080;2023-05-08T04:18:36;102167.79;;;13.26;84.35
58967;BME280;44744;51.894;5.080;2023-05-08T04:19:45;102171.30;;;13.26;84.61
58967;BME280;44744;51.894;5.080;2023-05-08T04:20:47;102164.66;;;13.28;84.56
58967;BME280;44744;51.894;5.080;2023-05-08T04:21:49;102168.04;;;13.28;84.50
58967;BME280;44744;51.894;5.080;2023-05-08T04:22:52;102170.10;;;13.30;84.73
58967;BME280;44744;51.894;5.080;2023-05-08T04:23:55;102172.68;;;13.31;84.83
58967;BME280;44744;51.894;5.080;2023-05-08T04:24:59;102173.36;;;13.32;84.97
58967;BME280;44744;51.894;5.080;2023-05-08T04:26:03;102174.24;;;13.32;84.83
58967;BME280;44744;51.894;5.080;2023-05-08T04:27:04;102175.67;;;13.32;85.06
58967;BME280;44744;51.894;5.080;2023-05-08T04:28:05;102177.27;;;13.32;85.20
58967;BME280;44744;51.894;5.080;2023-05-08T04:29:06;102177.38;;;13.34;85.16
58967;BME280;44744;51.894;5.080;2023-05-08T04:30:07;102177.89;;;13.35;85.30
58967;BME280;44744;51.894;5.080;2023-05-08T04:31:08;102179.83;;;13.35;85.25
58967;BME280;44744;51.894;5.080;2023-05-08T04:32:10;102179.44;;;13.36;85.51
58967;BME280;44744;51.894;5.080;2023-05-08T04:33:11;102181.16;;;13.37;85.62
58967;BME280;44744;51.894;5.080;2023-05-08T04:34:12;102179.50;;;13.39;85.86
58967;BME280;44744;51.894;5.080;2023-05-08T04:35:13;102176.36;;;13.41;85.67
58967;BME280;44744;51.894;5.080;2023-05-08T04:36:13;102175.60;;;13.42;85.79
58967;BME280;44744;51.894;5.080;2023-05-08T04:37:24;102174.43;;;13.45;85.98
58967;BME280;44744;51.894;5.080;2023-05-08T04:38:24;102175.43;;;13.46;86.05
58967;BME280;44744;51.894;5.080;2023-05-08T04:39:24;102178.02;;;13.47;85.98
58967;BME280;44744;51.894;5.080;2023-05-08T04:40:25;102175.09;;;13.50;85.97
58967;BME280;44744;51.894;5.080;2023-05-08T04:41:26;102176.96;;;13.52;85.96
58967;BME280;44744;51.894;5.080;2023-05-08T04:42:26;102180.27;;;13.53;86.02
58967;BME280;44744;51.894;5.080;2023-05-08T04:43:27;102177.96;;;13.53;86.10
58967;BME280;44744;51.894;5.080;2023-05-08T04:44:29;102178.72;;;13.56;86.07
58967;BME280;44744;51.894;5.080;2023-05-08T04:45:30;102182.36;;;13.58;86.10
58967;BME280;44744;51.894;5.080;2023-05-08T04:46:30;102181.46;;;13.58;86.34
58967;BME280;44744;51.894;5.080;2023-05-08T04:47:30;102184.03;;;13.60;86.16
58967;BME280;44744;51.894;5.080;2023-05-08T04:48:31;102184.33;;;13.61;86.07
58967;BME280;44744;51.894;5.080;2023-05-08T04:49:31;102185.88;;;13.62;86.18
58967;BME280;44744;51.894;5.080;2023-05-08T04:50:32;102186.40;;;13.62;86.17
58967;BME280;44744;51.894;5.080;2023-05-08T04:51:32;102186.90;;;13.63;86.32
58967;BME280;44744;51.894;5.080;2023-05-08T04:52:32;102185.98;;;13.64;86.29
58967;BME280;44744;51.894;5.080;2023-05-08T04:53:32;102187.91;;;13.64;86.35
58967;BME280;44744;51.894;5.080;2023-05-08T04:54:33;102191.06;;;13.65;86.26
58967;BME280;44744;51.894;5.080;2023-05-08T04:55:33;102192.23;;;13.67;86.34
58967;BME280;44744;51.894;5.080;2023-05-08T04:56:34;102190.77;;;13.68;86.47
58967;BME280;44744;51.894;5.080;2023-05-08T04:57:34;102195.90;;;13.69;86.32
58967;BME280;44744;51.894;5.080;2023-05-08T04:58:34;102198.23;;;13.68;86.31
58967;BME280;44744;51.894;5.080;2023-05-08T04:59:34;102195.42;;;13.68;86.15
58967;BME280;44744;51.894;5.080;2023-05-08T05:00:35;102196.82;;;13.68;86.35
58967;BME280;44744;51.894;5.080;2023-05-08T05:01:35;102197.17;;;13.68;86.54
58967;BME280;44744;51.894;5.080;2023-05-08T05:02:35;102197.42;;;13.66;86.72
58967;BME280;44744;51.894;5.080;2023-05-08T05:03:36;102195.95;;;13.64;86.66
58967;BME280;44744;51.894;5.080;2023-05-08T05:04:36;102192.80;;;13.62;86.62
58967;BME280;44744;51.894;5.080;2023-05-08T05:05:37;102195.18;;;13.61;86.64
58967;BME280;44744;51.894;5.080;2023-05-08T05:06:37;102196.84;;;13.60;86.76
58967;BME280;44744;51.894;5.080;2023-05-08T05:07:37;102198.59;;;13.60;86.78
58967;BME280;44744;51.894;5.080;2023-05-08T05:08:37;102198.06;;;13.60;86.70
58967;BME280;44744;51.894;5.080;2023-05-08T05:09:38;102200.16;;;13.61;86.59
58967;BME280;44744;51.894;5.080;2023-05-08T05:10:38;102204.85;;;13.59;86.72
58967;BME280;44744;51.894;5.080;2023-05-08T05:11:38;102207.17;;;13.59;86.97
58967;BME280;44744;51.894;5.080;2023-05-08T05:12:54;102204.67;;;13.56;87.16
58967;BME280;44744;51.894;5.080;2023-05-08T05:15:16;102212.11;;;13.44;87.76
58967;BME280;44744;51.894;5.080;2023-05-08T05:16:16;102215.34;;;13.40;87.85
58967;BME280;44744;51.894;5.080;2023-05-08T05:17:17;102214.23;;;13.37;87.84
58967;BME280;44744;51.894;5.080;2023-05-08T05:18:17;102218.94;;;13.34;88.11
58967;BME280;44744;51.894;5.080;2023-05-08T05:19:17;102222.77;;;13.32;88.13
58967;BME280;44744;51.894;5.080;2023-05-08T05:20:20;102220.11;;;13.31;88.14
58967;BME280;44744;51.894;5.080;2023-05-08T05:21:21;102218.16;;;13.31;88.25
58967;BME280;44744;51.894;5.080;2023-05-08T05:22:21;102221.00;;;13.31;88.35
58967;BME280;44744;51.894;5.080;2023-05-08T05:23:21;102223.10;;;13.32;88.40
58967;BME280;44744;51.894;5.080;2023-05-08T05:24:21;102224.61;;;13.35;88.51
58967;BME280;44744;51.894;5.080;2023-05-08T05:25:22;102228.10;;;13.37;88.58
58967;BME280;44744;51.894;5.080;2023-05-08T05:26:22;102226.42;;;13.39;88.58
58967;BME280;44744;51.894;5.080;2023-05-08T05:27:22;102227.29;;;13.39;88.77
58967;BME280;44744;51.894;5.080;2023-05-08T05:28:23;102225.43;;;13.41;88.81
58967;BME280;44744;51.894;5.080;2023-05-08T05:29:23;102228.73;;;13.42;89.15
58967;BME280;44744;51.894;5.080;2023-05-08T05:30:23;102229.79;;;13.42;89.18
58967;BME280;44744;51.894;5.080;2023-05-08T05:31:24;102226.70;;;13.44;89.22
58967;BME280;44744;51.894;5.080;2023-05-08T05:32:24;102227.92;;;13.45;89.47
58967;BME280;44744;51.894;5.080;2023-05-08T05:33:24;102230.17;;;13.46;89.66
58967;BME280;44744;51.894;5.080;2023-05-08T05:34:25;102227.13;;;13.46;89.88
58967;BME280;44744;51.894;5.080;2023-05-08T05:35:25;102228.50;;;13.47;90.01
58967;BME280;44744;51.894;5.080;2023-05-08T05:36:25;102226.86;;;13.48;90.02
58967;BME280;44744;51.894;5.080;2023-05-08T05:37:25;102234.11;;;13.49;90.30
58967;BME280;44744;51.894;5.080;2023-05-08T05:38:26;102227.79;;;13.51;90.24
58967;BME280;44744;51.894;5.080;2023-05-08T05:39:26;102232.34;;;13.53;90.64
58967;BME280;44744;51.894;5.080;2023-05-08T05:40:26;102231.78;;;13.54;90.66
58967;BME280;44744;51.894;5.080;2023-05-08T05:41:27;102228.00;;;13.55;90.74
58967;BME280;44744;51.894;5.080;2023-05-08T05:42:27;102232.16;;;13.57;90.76
58967;BME280;44744;51.894;5.080;2023-05-08T05:43:28;102232.30;;;13.58;90.79
58967;BME280;44744;51.894;5.080;2023-05-08T05:44:28;102232.41;;;13.59;90.92
58967;BME280;44744;51.894;5.080;2023-05-08T05:45:28;102234.81;;;13.61;91.16
58967;BME280;44744;51.894;5.080;2023-05-08T05:46:28;102232.80;;;13.62;90.99
58967;BME280;44744;51.894;5.080;2023-05-08T05:47:29;102232.04;;;13.64;91.39
58967;BME280;44744;51.894;5.080;2023-05-08T05:48:29;102231.96;;;13.65;91.32
58967;BME280;44744;51.894;5.080;2023-05-08T05:49:29;102234.17;;;13.67;91.49
58967;BME280;44744;51.894;5.080;2023-05-08T05:50:30;102234.30;;;13.69;91.40
58967;BME280;44744;51.894;5.080;2023-05-08T05:51:30;102233.73;;;13.70;91.50